createdAt,value
2018-08-03T12:13:14.093Z,39.90
2018-08-03T12:15:42.240Z,40.00
2018-08-03T12:18:13.305Z,40.10
2018-08-03T12:23:09.853Z,40.20
2018-08-03T12:25:38.006Z,40.30
2018-08-03T12:28:06.212Z,40.30
2018-08-03T12:30:34.439Z,40.20
2018-08-03T12:33:02.723Z,39.90
2018-08-03T12:35:30.896Z,39.90
2018-08-03T12:37:59.393Z,39.80
2018-08-03T12:42:55.504Z,39.60
2018-08-03T12:45:33.832Z,39.60
2018-08-03T12:47:51.920Z,39.60
2018-08-03T12:50:20.058Z,39.50
2018-08-03T12:52:48.481Z,39.60
2018-08-03T12:55:16.635Z,39.60
2018-08-03T12:57:44.834Z,39.60
2018-08-03T13:02:41.027Z,39.50
2018-08-03T13:05:09.085Z,39.40
2018-08-03T13:07:37.354Z,39.40
2018-08-03T13:10:05.399Z,39.40
2018-08-03T13:12:33.561Z,39.30
2018-08-03T13:15:01.723Z,39.30
2018-08-03T13:17:29.857Z,39.30
2018-08-03T13:19:58.012Z,39.30
2018-08-03T13:22:26.201Z,39.40
2018-08-03T13:24:54.425Z,39.40
2018-08-03T13:27:22.631Z,39.50
2018-08-03T13:29:50.752Z,39.50
2018-08-03T13:32:18.914Z,39.50
2018-08-03T13:34:47.056Z,39.50
2018-08-03T13:37:15.321Z,39.50
2018-08-03T13:39:43.473Z,39.40
2018-08-03T13:42:11.670Z,39.30
2018-08-03T13:44:39.883Z,39.00
2018-08-03T13:47:07.972Z,38.60
2018-08-03T13:49:36.387Z,38.30
2018-08-03T13:52:04.657Z,38.10
2018-08-03T13:54:32.811Z,38.00
2018-08-03T13:57:01.002Z,37.90
2018-08-03T13:59:29.183Z,37.80
2018-08-03T14:02:08.579Z,37.60
2018-08-03T14:04:36.714Z,37.50
2018-08-03T14:07:04.961Z,37.60
2018-08-03T14:09:33.080Z,37.70
2018-08-03T14:12:01.257Z,37.80
2018-08-03T14:14:29.429Z,37.90
2018-08-03T14:16:57.568Z,38.00
2018-08-03T14:19:25.848Z,38.10
2018-08-03T14:21:54.036Z,38.20
2018-08-03T14:24:22.207Z,38.30
2018-08-03T14:26:50.540Z,38.50
2018-08-03T14:29:18.776Z,38.60
2018-08-03T14:31:46.930Z,38.70
2018-08-03T14:34:15.204Z,38.70
2018-08-03T14:36:43.561Z,38.70
2018-08-03T14:39:11.966Z,38.60
2018-08-03T14:41:40.172Z,38.60
2018-08-03T14:44:08.892Z,38.60
2018-08-03T14:46:38.104Z,38.70
2018-08-03T14:49:06.461Z,38.80
2018-08-03T14:51:34.658Z,38.80
2018-08-03T14:54:02.836Z,38.90
2018-08-03T14:56:30.989Z,38.90
2018-08-03T14:58:59.292Z,38.90
2018-08-03T15:01:27.533Z,38.80
2018-08-03T15:03:55.752Z,38.80
2018-08-03T15:06:23.950Z,38.90
2018-08-03T15:08:52.141Z,38.90
2018-08-03T15:11:20.296Z,38.80
2018-08-03T15:13:48.537Z,38.80
2018-08-03T15:16:16.689Z,38.80
2018-08-03T15:18:44.890Z,38.90
2018-08-03T15:21:13.084Z,38.80
2018-08-03T15:23:41.229Z,38.80
2018-08-03T15:26:09.365Z,38.80
2018-08-03T15:28:38.267Z,38.60
2018-08-03T15:31:06.395Z,38.50
2018-08-03T15:33:34.540Z,38.50
2018-08-03T15:36:02.721Z,38.40
2018-08-03T15:38:30.849Z,38.40
2018-08-03T15:40:59.110Z,38.40
2018-08-03T15:43:27.265Z,38.40
2018-08-03T15:45:55.446Z,38.40
2018-08-03T15:48:23.785Z,38.40
2018-08-03T15:50:51.920Z,38.40
2018-08-03T15:53:20.147Z,38.40
2018-08-03T15:55:48.657Z,38.30
2018-08-03T15:58:16.794Z,38.30
2018-08-03T16:00:44.979Z,38.30
2018-08-03T16:03:13.131Z,38.20
2018-08-03T16:05:41.310Z,38.00
2018-08-03T16:08:09.462Z,37.80
2018-08-03T16:10:37.601Z,37.60
2018-08-03T16:13:06.057Z,37.50
2018-08-03T16:15:34.213Z,37.50
2018-08-03T16:18:02.700Z,37.50
2018-08-03T16:20:31.433Z,37.50
2018-08-03T16:22:59.570Z,37.50
2018-08-03T16:25:27.840Z,37.50
2018-08-03T16:27:56.067Z,37.40
2018-08-03T16:30:24.777Z,37.40
2018-08-03T16:32:52.930Z,37.40
2018-08-03T16:35:21.144Z,37.40
2018-08-03T16:37:49.274Z,37.30
2018-08-03T16:40:17.502Z,37.30
2018-08-03T16:42:45.613Z,37.30
2018-08-03T16:45:13.745Z,37.20
2018-08-03T16:47:41.879Z,37.00
2018-08-03T16:50:10.086Z,36.90
2018-08-03T16:52:39.219Z,36.80
2018-08-03T16:55:07.509Z,36.80
2018-08-03T16:57:35.627Z,36.70
2018-08-03T17:00:04.572Z,36.70
2018-08-03T17:02:33.305Z,36.70
2018-08-03T17:05:01.571Z,36.50
2018-08-03T17:07:29.733Z,36.50
2018-08-03T17:09:57.978Z,36.50
2018-08-03T17:12:26.116Z,36.40
2018-08-03T17:14:54.344Z,36.40
2018-08-03T17:17:22.712Z,36.40
2018-08-03T17:19:50.846Z,36.40
2018-08-03T17:22:19.000Z,36.40
2018-08-03T17:24:47.265Z,36.30
2018-08-03T17:27:15.708Z,36.20
2018-08-03T17:29:43.850Z,36.20
2018-08-03T17:32:12.189Z,36.20
2018-08-03T17:34:41.242Z,36.20
2018-08-03T17:37:10.098Z,36.20
2018-08-03T17:39:38.227Z,36.10
2018-08-03T17:42:06.738Z,36.10
2018-08-03T17:44:35.197Z,36.10
2018-08-03T17:47:03.578Z,36.10
2018-08-03T17:49:32.270Z,36.00
2018-08-03T17:52:01.265Z,36.00
2018-08-03T17:54:30.271Z,36.00
2018-08-03T17:56:58.492Z,35.90
2018-08-03T17:59:26.787Z,35.90
2018-08-03T18:01:54.958Z,35.80
2018-08-03T18:04:24.147Z,35.70
2018-08-03T18:06:53.699Z,35.60
2018-08-03T18:09:23.327Z,35.60
2018-08-03T18:11:52.735Z,35.60
2018-08-03T18:14:20.894Z,35.50
2018-08-03T18:16:49.946Z,35.40
